Time;durP1;ratioP1;P1;durP2;ratioP2;P2;SDS_P1;SDS_P2;PMS_P1;PMS_P2;Temp;Humidity;BMP_temperature;BMP_pressure;BME280_temperature;BME280_humidity;BME280_pressure;Samples;Min_cycle;Max_cycle;Signal;HPM_P1;HPM_P2
2022/02/14 00:00:37;;;;;;;2.80;2.60;;;;;;;;;;2066228;28;20109;-66
2022/02/14 00:01:57;;;;;;;3.15;2.95;;;;;;;;;;2067003;28;20496;-66
2022/02/14 00:03:16;;;;;;;2.75;2.55;;;;;;;;;;2064571;28;20308;-66
2022/02/14 00:04:35;;;;;;;2.88;2.60;;;;;;;;;;2065633;28;20061;-65
2022/02/14 00:05:54;;;;;;;2.45;2.35;;;;;;;;;;2065886;28;20026;-65
2022/02/14 00:07:13;;;;;;;2.80;2.35;;;;;;;;;;2065879;28;20331;-68
2022/02/14 00:08:32;;;;;;;2.70;2.50;;;;;;;;;;2065453;28;20038;-67
2022/02/14 00:09:51;;;;;;;3.25;2.97;;;;;;;;;;2065842;28;20022;-66
2022/02/14 00:11:10;;;;;;;3.25;2.90;;;;;;;;;;2066144;28;20583;-67
2022/02/14 00:12:28;;;;;;;2.80;2.60;;;;;;;;;;2067392;28;20033;-66
2022/02/14 00:13:47;;;;;;;2.78;2.58;;;;;;;;;;2065729;28;20464;-66
2022/02/14 00:15:07;;;;;;;3.00;2.80;;;;;;;;;;2065299;28;20030;-66
2022/02/14 00:16:26;;;;;;;3.38;3.17;;;;;;;;;;2065051;28;20038;-66
2022/02/14 00:17:45;;;;;;;3.22;2.92;;;;;;;;;;2067089;28;20038;-65
2022/02/14 00:19:04;;;;;;;2.80;2.60;;;;;;;;;;2065463;28;20031;-66
2022/02/14 00:20:23;;;;;;;2.90;2.65;;;;;;;;;;2066131;28;20458;-66
2022/02/14 00:21:42;;;;;;;3.13;2.83;;;;;;;;;;2066918;28;20034;-66
2022/02/14 00:23:01;;;;;;;3.28;2.97;;;;;;;;;;2065373;28;20054;-66
2022/02/14 00:24:20;;;;;;;2.72;2.53;;;;;;;;;;2065692;28;20046;-66
2022/02/14 00:25:39;;;;;;;3.30;3.00;;;;;;;;;;2065058;28;20026;-65
2022/02/14 00:26:58;;;;;;;3.63;3.08;;;;;;;;;;2065731;28;20023;-66
2022/02/14 00:28:18;;;;;;;3.33;3.08;;;;;;;;;;2067443;28;20030;-65
2022/02/14 00:29:36;;;;;;;3.40;3.17;;;;;;;;;;2065309;28;20484;-66
2022/02/14 00:30:56;;;;;;;3.42;3.03;;;;;;;;;;2064737;28;20030;-66
2022/02/14 00:32:15;;;;;;;3.60;3.33;;;;;;;;;;2065994;28;20038;-66
2022/02/14 00:33:34;;;;;;;3.38;3.17;;;;;;;;;;2065173;28;20030;-66
2022/02/14 00:34:54;;;;;;;3.78;3.47;;;;;;;;;;2067860;28;20030;-66
2022/02/14 00:36:13;;;;;;;3.40;3.20;;;;;;;;;;2067454;28;20154;-65
2022/02/14 00:37:32;;;;;;;4.15;3.80;;;;;;;;;;2065688;28;20109;-66
2022/02/14 00:38:51;;;;;;;3.30;3.10;;;;;;;;;;2064453;28;20507;-66
2022/02/14 00:40:11;;;;;;;3.90;3.60;;;;;;;;;;2065062;28;20066;-66
2022/02/14 00:41:29;;;;;;;3.83;3.53;;;;;;;;;;2065955;28;20476;-66
2022/02/14 00:42:49;;;;;;;3.45;3.25;;;;;;;;;;2065545;28;20117;-66
2022/02/14 00:44:07;;;;;;;3.30;3.10;;;;;;;;;;2064617;28;20038;-66
2022/02/14 00:45:26;;;;;;;4.07;3.78;;;;;;;;;;2064279;28;20066;-66
2022/02/14 00:46:45;;;;;;;3.70;3.40;;;;;;;;;;2108496;28;20028;-66
2022/02/14 00:48:05;;;;;;;3.55;3.35;;;;;;;;;;2084355;28;20058;-66
2022/02/14 00:49:24;;;;;;;4.00;3.70;;;;;;;;;;2066484;28;20041;-66
2022/02/14 00:50:43;;;;;;;3.83;3.53;;;;;;;;;;2068004;28;20042;-66
2022/02/14 00:52:02;;;;;;;3.40;3.20;;;;;;;;;;2067589;28;20027;-66
2022/02/14 00:53:21;;;;;;;4.25;3.95;;;;;;;;;;2067289;28;20062;-66
2022/02/14 00:54:40;;;;;;;4.00;3.60;;;;;;;;;;2067044;28;20062;-66
2022/02/14 00:55:59;;;;;;;4.43;3.53;;;;;;;;;;2067353;28;20034;-64
2022/02/14 00:57:18;;;;;;;4.50;4.20;;;;;;;;;;2067705;28;20030;-66
2022/02/14 00:58:36;;;;;;;4.10;3.80;;;;;;;;;;2067402;28;20595;-66
2022/02/14 00:59:55;;;;;;;4.53;4.13;;;;;;;;;;2066524;28;20025;-65
2022/02/14 01:01:14;;;;;;;3.92;3.63;;;;;;;;;;2068105;28;20105;-66
2022/02/14 01:02:33;;;;;;;4.25;3.95;;;;;;;;;;2072085;28;20430;-66
2022/02/14 01:03:52;;;;;;;4.28;3.97;;;;;;;;;;2067827;28;20396;-66
2022/02/14 01:05:11;;;;;;;4.65;4.28;;;;;;;;;;2066757;28;20054;-66
2022/02/14 01:06:30;;;;;;;4.18;3.88;;;;;;;;;;2067396;28;20026;-66
2022/02/14 01:07:49;;;;;;;5.03;4.63;;;;;;;;;;2067372;28;20540;-66
2022/02/14 01:09:09;;;;;;;5.93;4.75;;;;;;;;;;2069436;28;20042;-66
2022/02/14 01:10:27;;;;;;;4.68;4.38;;;;;;;;;;2067446;28;20030;-66
2022/02/14 01:11:47;;;;;;;5.28;4.78;;;;;;;;;;2066527;28;20039;-65
2022/02/14 01:13:06;;;;;;;5.05;4.68;;;;;;;;;;2069925;28;20113;-65
2022/02/14 01:14:26;;;;;;;4.70;4.38;;;;;;;;;;2063185;28;20030;-65
2022/02/14 01:15:44;;;;;;;5.78;4.78;;;;;;;;;;2066606;28;20037;-66
2022/02/14 01:17:03;;;;;;;4.95;4.63;;;;;;;;;;2067500;28;20022;-65
2022/02/14 01:18:22;;;;;;;4.88;4.47;;;;;;;;;;2068121;28;21019;-65
2022/02/14 01:19:42;;;;;;;4.40;4.10;;;;;;;;;;2062997;28;20039;-65
2022/02/14 01:21:01;;;;;;;4.88;4.47;;;;;;;;;;2068815;28;20035;-65
2022/02/14 01:22:20;;;;;;;4.40;4.10;;;;;;;;;;2066763;28;20070;-66
2022/02/14 01:23:39;;;;;;;4.90;4.50;;;;;;;;;;2066413;28;20030;-66
2022/02/14 01:24:58;;;;;;;5.05;4.65;;;;;;;;;;2066246;28;20272;-65
2022/02/14 01:26:17;;;;;;;4.90;4.60;;;;;;;;;;2066831;28;20042;-65
2022/02/14 01:27:37;;;;;;;5.30;4.93;;;;;;;;;;2066598;28;20031;-65
2022/02/14 01:28:56;;;;;;;5.22;4.82;;;;;;;;;;2066500;28;20030;-65
2022/02/14 01:30:15;;;;;;;5.07;4.68;;;;;;;;;;2065735;28;20037;-66
2022/02/14 01:31:34;;;;;;;5.18;4.78;;;;;;;;;;2066435;28;20416;-66
2022/02/14 01:32:53;;;;;;;4.88;4.47;;;;;;;;;;2066490;28;20659;-66
2022/02/14 01:34:12;;;;;;;4.90;4.60;;;;;;;;;;2065956;28;20097;-66
2022/02/14 01:35:31;;;;;;;5.32;4.93;;;;;;;;;;2062576;28;20030;-65
2022/02/14 01:36:49;;;;;;;4.75;4.45;;;;;;;;;;2066638;28;20021;-66
2022/02/14 01:38:08;;;;;;;4.65;4.25;;;;;;;;;;2067120;28;20144;-65
2022/02/14 01:39:29;;;;;;;4.43;4.13;;;;;;;;;;2067113;28;20042;-66
2022/02/14 01:40:47;;;;;;;5.30;4.30;;;;;;;;;;2068287;28;20408;-66
2022/02/14 01:42:06;;;;;;;4.68;4.38;;;;;;;;;;2068217;28;20038;-66
2022/02/14 01:43:25;;;;;;;4.97;4.57;;;;;;;;;;2067310;28;20113;-65
2022/02/14 01:44:46;;;;;;;4.95;4.65;;;;;;;;;;2065648;28;20062;-66
2022/02/14 01:46:05;;;;;;;5.15;4.75;;;;;;;;;;2066415;28;20026;-66
2022/02/14 01:47:25;;;;;;;5.85;4.53;;;;;;;;;;2070264;28;20038;-66
2022/02/14 01:48:44;;;;;;;5.07;4.72;;;;;;;;;;2068958;28;20388;-66
2022/02/14 01:50:04;;;;;;;5.90;5.32;;;;;;;;;;2065533;28;20030;-66
2022/02/14 01:51:23;;;;;;;5.15;4.75;;;;;;;;;;2066737;28;20587;-66
2022/02/14 01:52:43;;;;;;;5.13;4.75;;;;;;;;;;2065847;28;20109;-65
2022/02/14 01:54:02;;;;;;;5.80;5.40;;;;;;;;;;2067113;28;20021;-66
2022/02/14 01:55:21;;;;;;;4.90;4.60;;;;;;;;;;2067068;28;20038;-66
2022/02/14 01:56:40;;;;;;;4.97;4.47;;;;;;;;;;2067058;28;20030;-66
2022/02/14 01:58:03;;;;;;;5.38;4.97;;;;;;;;;;2067403;28;20030;-66
2022/02/14 01:59:22;;;;;;;;;;;;;;;;;;2069448;28;20042;-66
2022/02/14 02:00:41;;;;;;;4.40;4.10;;;;;;;;;;2066881;28;20379;-66
2022/02/14 02:02:01;;;;;;;5.10;4.70;;;;;;;;;;2067027;28;20022;-66
2022/02/14 02:03:22;;;;;;;5.93;5.35;;;;;;;;;;2066989;28;20038;-66
2022/02/14 02:04:43;;;;;;;4.82;4.50;;;;;;;;;;2068440;28;20105;-66
2022/02/14 02:06:02;;;;;;;5.25;4.78;;;;;;;;;;2067128;28;20026;-66
2022/02/14 02:07:21;;;;;;;5.10;4.70;;;;;;;;;;2067408;28;20026;-66
2022/02/14 02:08:40;;;;;;;4.85;4.53;;;;;;;;;;2067582;28;20082;-65
2022/02/14 02:09:59;;;;;;;4.70;4.40;;;;;;;;;;2067092;28;20022;-66
2022/02/14 02:12:56;;;;;;;5.15;4.65;;;;;;;;;;2067187;28;20019;-65
2022/02/14 02:14:22;;;;;;;5.15;4.75;;;;;;;;;;2065639;28;20031;-65
2022/02/14 02:15:41;;;;;;;6.07;5.53;;;;;;;;;;2066981;28;20448;-65
2022/02/14 02:17:00;;;;;;;5.70;5.20;;;;;;;;;;2067818;28;20079;-65
2022/02/14 02:18:19;;;;;;;5.63;5.13;;;;;;;;;;2067630;28;20038;-65
2022/02/14 02:19:38;;;;;;;5.38;4.97;;;;;;;;;;2068055;28;20109;-65
2022/02/14 02:20:57;;;;;;;5.53;5.03;;;;;;;;;;2067875;28;20030;-66
2022/02/14 02:22:16;;;;;;;5.75;5.25;;;;;;;;;;2067187;28;20034;-65
2022/02/14 02:23:38;;;;;;;5.75;5.35;;;;;;;;;;2067755;28;20034;-65
2022/02/14 02:24:57;;;;;;;5.70;5.25;;;;;;;;;;2066676;28;20081;-65
2022/02/14 02:26:16;;;;;;;5.72;5.32;;;;;;;;;;2067095;28;20026;-66
2022/02/14 02:27:35;;;;;;;6.22;5.70;;;;;;;;;;2066909;28;20042;-65
2022/02/14 02:28:54;;;;;;;5.32;4.93;;;;;;;;;;2068075;28;20476;-66
2022/02/14 02:30:14;;;;;;;5.95;5.45;;;;;;;;;;2068244;28;20030;-65
2022/02/14 02:31:33;;;;;;;6.00;5.50;;;;;;;;;;2071717;28;20042;-65
2022/02/14 02:32:52;;;;;;;6.00;5.40;;;;;;;;;;2065785;28;20051;-65
2022/02/14 02:34:11;;;;;;;5.85;5.35;;;;;;;;;;2068145;28;20026;-65
2022/02/14 02:35:32;;;;;;;5.60;5.20;;;;;;;;;;2066653;28;20026;-65
2022/02/14 02:36:52;;;;;;;5.50;5.10;;;;;;;;;;2067333;28;20057;-66
2022/02/14 02:38:11;;;;;;;6.85;6.25;;;;;;;;;;2067349;28;20507;-66
2022/02/14 02:39:30;;;;;;;6.03;5.50;;;;;;;;;;2063566;28;20496;-65
2022/02/14 02:40:49;;;;;;;6.20;5.70;;;;;;;;;;2067015;28;20026;-65
2022/02/14 02:42:09;;;;;;;5.70;5.20;;;;;;;;;;2065406;28;20030;-65
2022/02/14 02:43:29;;;;;;;5.88;5.43;;;;;;;;;;2067551;28;20103;-65
2022/02/14 02:44:48;;;;;;;5.20;4.70;;;;;;;;;;2066666;28;20022;-65
2022/02/14 02:46:07;;;;;;;5.10;4.80;;;;;;;;;;2068169;28;20497;-65
2022/02/14 02:47:29;;;;;;;5.60;5.10;;;;;;;;;;2067838;28;21153;-65
2022/02/14 02:48:48;;;;;;;5.73;5.20;;;;;;;;;;2067163;28;20108;-66
2022/02/14 02:50:07;;;;;;;5.28;4.88;;;;;;;;;;2067404;28;20228;-66
2022/02/14 02:51:26;;;;;;;5.85;5.35;;;;;;;;;;2068478;28;20038;-66
2022/02/14 02:52:45;;;;;;;5.40;5.00;;;;;;;;;;2067989;28;20033;-66
2022/02/14 02:54:04;;;;;;;5.30;4.90;;;;;;;;;;2067566;28;20034;-67
2022/02/14 02:55:23;;;;;;;5.32;4.80;;;;;;;;;;2068856;28;20023;-66
2022/02/14 02:56:44;;;;;;;5.50;5.10;;;;;;;;;;2066680;28;20102;-66
2022/02/14 02:58:03;;;;;;;5.32;4.88;;;;;;;;;;2068007;28;20030;-67
2022/02/14 02:59:24;;;;;;;5.47;4.85;;;;;;;;;;2069746;28;20492;-66
2022/02/14 03:00:43;;;;;;;6.75;5.20;;;;;;;;;;2067634;28;20729;-66
2022/02/14 03:02:02;;;;;;;7.63;5.40;;;;;;;;;;2067046;28;20037;-66
2022/02/14 03:03:21;;;;;;;5.50;5.05;;;;;;;;;;2069578;28;20038;-65
2022/02/14 03:04:40;;;;;;;6.10;5.50;;;;;;;;;;2067250;28;20026;-66
2022/02/14 03:06:00;;;;;;;5.28;4.78;;;;;;;;;;2067052;28;20480;-66
2022/02/14 03:07:19;;;;;;;5.55;5.05;;;;;;;;;;2067548;28;20485;-66
2022/02/14 03:08:38;;;;;;;6.20;5.60;;;;;;;;;;2067471;28;20484;-67
2022/02/14 03:09:57;;;;;;;5.60;5.10;;;;;;;;;;2069612;28;20105;-66
2022/02/14 03:11:20;;;;;;;5.47;4.97;;;;;;;;;;2067449;28;20026;-66
2022/02/14 03:12:38;;;;;;;5.68;5.13;;;;;;;;;;2067103;28;20404;-66
2022/02/14 03:13:57;;;;;;;5.75;5.25;;;;;;;;;;2067306;28;20026;-65
2022/02/14 03:15:16;;;;;;;5.80;5.18;;;;;;;;;;2067420;28;20038;-66
2022/02/14 03:16:35;;;;;;;5.10;4.70;;;;;;;;;;2067345;28;20042;-66
2022/02/14 03:17:54;;;;;;;5.70;5.10;;;;;;;;;;2067083;28;20030;-66
2022/02/14 03:19:13;;;;;;;5.53;5.05;;;;;;;;;;2066659;28;20468;-65
2022/02/14 03:20:32;;;;;;;5.80;5.30;;;;;;;;;;2067853;28;20042;-66
2022/02/14 03:21:50;;;;;;;6.13;5.63;;;;;;;;;;2065962;28;20026;-66
2022/02/14 03:23:10;;;;;;;5.88;5.38;;;;;;;;;;2068505;28;20026;-65
2022/02/14 03:24:29;;;;;;;6.13;5.63;;;;;;;;;;2067084;28;20047;-65
2022/02/14 03:25:48;;;;;;;7.30;5.93;;;;;;;;;;2066817;28;20040;-65
2022/02/14 03:27:07;;;;;;;5.82;5.32;;;;;;;;;;2066650;28;20395;-64
2022/02/14 03:28:27;;;;;;;7.97;5.85;;;;;;;;;;2068045;28;20476;-66
2022/02/14 03:29:45;;;;;;;6.40;5.95;;;;;;;;;;2066156;28;20101;-65
2022/02/14 03:31:04;;;;;;;5.70;5.20;;;;;;;;;;2066954;28;20034;-65
2022/02/14 03:32:23;;;;;;;7.40;5.47;;;;;;;;;;2066079;28;20050;-65
2022/02/14 03:33:43;;;;;;;6.35;5.85;;;;;;;;;;2065794;28;20042;-66
2022/02/14 03:35:03;;;;;;;6.80;6.20;;;;;;;;;;2064665;28;20120;-65
2022/02/14 03:36:22;;;;;;;5.70;5.20;;;;;;;;;;2067441;28;20034;-66
2022/02/14 03:37:41;;;;;;;6.35;5.85;;;;;;;;;;2068098;28;20034;-66
2022/02/14 03:39:00;;;;;;;5.50;5.05;;;;;;;;;;2067256;28;20030;-65
2022/02/14 03:40:19;;;;;;;6.30;5.80;;;;;;;;;;2067449;28;20026;-66
2022/02/14 03:41:38;;;;;;;6.25;5.75;;;;;;;;;;2067374;28;20030;-65
2022/02/14 03:42:57;;;;;;;6.03;5.50;;;;;;;;;;2066656;28;20030;-65
2022/02/14 03:44:16;;;;;;;6.18;5.55;;;;;;;;;;2065867;28;20030;-65
2022/02/14 03:45:35;;;;;;;8.13;6.38;;;;;;;;;;2067405;28;20643;-66
2022/02/14 03:46:54;;;;;;;6.97;6.38;;;;;;;;;;2066556;28;20082;-65
2022/02/14 03:48:13;;;;;;;6.10;5.50;;;;;;;;;;2067566;28;20026;-66
2022/02/14 03:49:32;;;;;;;6.65;6.05;;;;;;;;;;2067945;28;20109;-65
2022/02/14 03:50:55;;;;;;;7.07;6.45;;;;;;;;;;2066440;28;20518;-66
2022/02/14 03:52:14;;;;;;;6.57;6.00;;;;;;;;;;2064239;28;20124;-65
2022/02/14 03:53:33;;;;;;;7.07;6.40;;;;;;;;;;2068674;28;20427;-66
2022/02/14 03:54:52;;;;;;;7.00;6.38;;;;;;;;;;2067345;28;20026;-65
2022/02/14 03:56:11;;;;;;;7.03;6.43;;;;;;;;;;2067499;28;20512;-65
2022/02/14 03:57:29;;;;;;;7.22;6.53;;;;;;;;;;2066148;28;20120;-66
2022/02/14 03:58:48;;;;;;;7.97;7.28;;;;;;;;;;2066772;28;20030;-65
2022/02/14 04:00:08;;;;;;;8.80;6.63;;;;;;;;;;2067231;28;20030;-66
2022/02/14 04:01:28;;;;;;;7.60;6.20;;;;;;;;;;2067415;28;20018;-65
2022/02/14 04:02:47;;;;;;;6.82;6.13;;;;;;;;;;2066075;28;20113;-65
2022/02/14 04:04:07;;;;;;;7.60;6.90;;;;;;;;;;2067233;28;20030;-65
2022/02/14 04:05:26;;;;;;;7.20;6.60;;;;;;;;;;2067271;28;20022;-65
2022/02/14 04:06:45;;;;;;;7.93;7.00;;;;;;;;;;2067105;28;20041;-65
2022/02/14 04:08:04;;;;;;;6.97;6.28;;;;;;;;;;2067056;28;20027;-65
2022/02/14 04:09:23;;;;;;;7.35;6.10;;;;;;;;;;2067423;28;20034;-65
2022/02/14 04:10:42;;;;;;;8.63;7.47;;;;;;;;;;2067175;28;20027;-65
2022/02/14 04:12:01;;;;;;;8.90;6.60;;;;;;;;;;2066513;28;20034;-65
2022/02/14 04:13:20;;;;;;;8.25;7.45;;;;;;;;;;2067526;28;20129;-64
2022/02/14 04:14:39;;;;;;;12.77;6.90;;;;;;;;;;2067655;28;20031;-65
2022/02/14 04:15:57;;;;;;;7.53;6.60;;;;;;;;;;2067085;28;20033;-65
2022/02/14 04:17:16;;;;;;;8.38;7.13;;;;;;;;;;2067290;28;20034;-65
2022/02/14 04:18:35;;;;;;;7.90;7.05;;;;;;;;;;2067599;28;20042;-64
2022/02/14 04:19:54;;;;;;;8.68;7.88;;;;;;;;;;2067311;28;20038;-66
2022/02/14 04:21:13;;;;;;;8.38;7.47;;;;;;;;;;2067217;28;20026;-66
2022/02/14 04:22:32;;;;;;;11.13;8.05;;;;;;;;;;2064331;28;20034;-66
2022/02/14 04:23:51;;;;;;;8.63;7.72;;;;;;;;;;2067376;28;20062;-65
2022/02/14 04:25:12;;;;;;;12.73;8.02;;;;;;;;;;2066874;28;20073;-66
2022/02/14 04:26:31;;;;;;;11.32;7.78;;;;;;;;;;2066995;28;20019;-66
2022/02/14 04:27:50;;;;;;;8.90;7.93;;;;;;;;;;2066574;28;20038;-65
2022/02/14 04:29:09;;;;;;;10.32;7.75;;;;;;;;;;2066552;28;20029;-65
2022/02/14 04:30:29;;;;;;;10.48;9.38;;;;;;;;;;2066749;28;20031;-65
2022/02/14 04:31:48;;;;;;;9.80;8.20;;;;;;;;;;2066174;28;20029;-65
2022/02/14 04:33:07;;;;;;;9.32;7.90;;;;;;;;;;2065739;28;20038;-65
2022/02/14 04:34:26;;;;;;;9.75;8.02;;;;;;;;;;2067046;28;21041;-65
2022/02/14 04:35:45;;;;;;;11.38;8.50;;;;;;;;;;2066526;28;20042;-65
2022/02/14 04:37:04;;;;;;;9.88;8.73;;;;;;;;;;2066352;28;20030;-66
2022/02/14 04:38:22;;;;;;;9.38;8.05;;;;;;;;;;2066481;28;20125;-66
2022/02/14 04:39:42;;;;;;;10.50;8.38;;;;;;;;;;2065496;28;20057;-67
2022/02/14 04:41:01;;;;;;;11.68;8.77;;;;;;;;;;2067456;28;20026;-65
2022/02/14 04:42:20;;;;;;;10.88;8.23;;;;;;;;;;2067079;28;20038;-65
2022/02/14 04:43:39;;;;;;;9.85;8.40;;;;;;;;;;2067005;28;20026;-66
2022/02/14 04:44:58;;;;;;;12.57;7.68;;;;;;;;;;2067343;28;20023;-66
2022/02/14 04:46:18;;;;;;;12.38;8.45;;;;;;;;;;2067145;28;20030;-65
2022/02/14 04:47:40;;;;;;;13.98;8.77;;;;;;;;;;2067532;28;20101;-66
2022/02/14 04:48:59;;;;;;;11.02;8.50;;;;;;;;;;2066365;28;20058;-65
2022/02/14 04:50:18;;;;;;;15.43;9.02;;;;;;;;;;2067765;28;20426;-65
2022/02/14 04:51:37;;;;;;;13.07;8.80;;;;;;;;;;2066732;28;20555;-66
2022/02/14 04:52:56;;;;;;;10.77;8.45;;;;;;;;;;2066303;28;20062;-65
2022/02/14 04:54:15;;;;;;;13.48;8.88;;;;;;;;;;2065624;28;20030;-66
2022/02/14 04:55:34;;;;;;;15.80;8.45;;;;;;;;;;2066827;28;20030;-66
2022/02/14 04:56:53;;;;;;;9.95;8.35;;;;;;;;;;2066708;28;20022;-66
2022/02/14 04:58:12;;;;;;;10.00;8.60;;;;;;;;;;2066436;28;20504;-66
2022/02/14 04:59:32;;;;;;;16.33;9.00;;;;;;;;;;2069760;28;20112;-66
2022/02/14 05:00:52;;;;;;;11.60;7.70;;;;;;;;;;2066832;28;20676;-66
2022/02/14 05:02:11;;;;;;;11.73;8.35;;;;;;;;;;2066706;28;20022;-66
2022/02/14 05:03:30;;;;;;;12.27;8.10;;;;;;;;;;2065951;28;20088;-66
2022/02/14 05:04:49;;;;;;;14.20;8.18;;;;;;;;;;2065807;28;20034;-66
2022/02/14 05:06:08;;;;;;;11.02;8.27;;;;;;;;;;2065751;28;20038;-66
2022/02/14 05:07:27;;;;;;;11.25;8.07;;;;;;;;;;2063101;28;20030;-66
2022/02/14 05:08:46;;;;;;;12.05;8.45;;;;;;;;;;2105041;28;20115;-66
2022/02/14 05:10:06;;;;;;;12.38;8.57;;;;;;;;;;2083805;28;20035;-66
2022/02/14 05:11:25;;;;;;;11.32;7.85;;;;;;;;;;2067131;28;20030;-66
2022/02/14 05:12:44;;;;;;;9.40;7.57;;;;;;;;;;2066016;28;20030;-66
2022/02/14 05:14:03;;;;;;;11.00;7.97;;;;;;;;;;2065414;28;20038;-66
2022/02/14 05:15:21;;;;;;;10.52;7.90;;;;;;;;;;2067957;28;20505;-66
2022/02/14 05:16:41;;;;;;;11.00;7.90;;;;;;;;;;2065874;28;20185;-66
2022/02/14 05:18:00;;;;;;;10.50;8.40;;;;;;;;;;2066722;28;20062;-66
2022/02/14 05:19:20;;;;;;;8.90;8.00;;;;;;;;;;2066647;28;20043;-65
2022/02/14 05:20:39;;;;;;;12.15;8.90;;;;;;;;;;2066251;28;20030;-66
2022/02/14 05:21:58;;;;;;;10.73;8.05;;;;;;;;;;2066217;28;20109;-72
2022/02/14 05:23:17;;;;;;;9.98;7.95;;;;;;;;;;2067070;28;20026;-66
2022/02/14 05:24:36;;;;;;;13.40;8.75;;;;;;;;;;2066667;28;20050;-66
2022/02/14 05:25:55;;;;;;;11.95;8.48;;;;;;;;;;2066906;28;20034;-66
2022/02/14 05:27:16;;;;;;;14.60;9.00;;;;;;;;;;2065457;28;20023;-66
2022/02/14 05:28:34;;;;;;;11.90;8.15;;;;;;;;;;2066287;28;20031;-66
2022/02/14 05:29:54;;;;;;;9.10;7.35;;;;;;;;;;2066981;28;20111;-66
2022/02/14 05:31:13;;;;;;;9.32;7.55;;;;;;;;;;2066577;28;20023;-66
2022/02/14 05:32:32;;;;;;;10.82;8.50;;;;;;;;;;2066267;28;20038;-66
2022/02/14 05:33:51;;;;;;;10.45;8.02;;;;;;;;;;2068481;28;20020;-66
2022/02/14 05:35:10;;;;;;;10.38;8.77;;;;;;;;;;2068450;28;20467;-66
2022/02/14 05:36:29;;;;;;;15.98;8.60;;;;;;;;;;2068779;28;20034;-66
2022/02/14 05:37:47;;;;;;;15.55;8.70;;;;;;;;;;2069310;28;20207;-66
2022/02/14 05:39:06;;;;;;;9.80;8.25;;;;;;;;;;2066953;28;20314;-67
2022/02/14 05:40:26;;;;;;;13.32;8.70;;;;;;;;;;2067196;28;20504;-67
2022/02/14 05:41:45;;;;;;;9.25;7.90;;;;;;;;;;2067723;28;20080;-66
2022/02/14 05:43:04;;;;;;;9.52;7.75;;;;;;;;;;2068919;28;20504;-66
2022/02/14 05:44:23;;;;;;;15.25;8.63;;;;;;;;;;2067820;28;20035;-65
2022/02/14 05:45:42;;;;;;;11.93;8.60;;;;;;;;;;2067455;28;20022;-65
2022/02/14 05:47:01;;;;;;;12.45;8.90;;;;;;;;;;2067949;28;20400;-66
2022/02/14 05:48:26;;;;;;;13.13;9.48;;;;;;;;;;2063093;28;20129;-66
2022/02/14 05:49:45;;;;;;;11.82;8.23;;;;;;;;;;2067118;28;20034;-66
2022/02/14 05:51:04;;;;;;;10.77;8.43;;;;;;;;;;2065623;28;20054;-67
2022/02/14 05:52:23;;;;;;;12.65;9.07;;;;;;;;;;2065572;28;20037;-67
2022/02/14 05:53:42;;;;;;;13.35;8.35;;;;;;;;;;2068904;28;20034;-67
2022/02/14 05:55:01;;;;;;;10.98;8.82;;;;;;;;;;2066462;28;20026;-66
2022/02/14 05:56:20;;;;;;;10.50;8.32;;;;;;;;;;2064606;28;20487;-66
2022/02/14 05:57:39;;;;;;;10.68;8.88;;;;;;;;;;2065354;28;20050;-66
2022/02/14 05:58:59;;;;;;;11.30;8.13;;;;;;;;;;2064133;28;20488;-66
2022/02/14 06:00:18;;;;;;;10.80;8.50;;;;;;;;;;2066483;28;20392;-66
2022/02/14 06:01:37;;;;;;;11.18;8.77;;;;;;;;;;2067618;28;20689;-67
2022/02/14 06:02:56;;;;;;;10.73;8.43;;;;;;;;;;2069966;28;20499;-67
2022/02/14 06:04:15;;;;;;;8.95;8.02;;;;;;;;;;2067033;28;20026;-67
2022/02/14 06:05:35;;;;;;;15.48;9.90;;;;;;;;;;2066291;28;20026;-67
2022/02/14 06:06:54;;;;;;;15.63;9.75;;;;;;;;;;2066152;28;20160;-67
2022/02/14 06:08:13;;;;;;;12.68;8.00;;;;;;;;;;2066418;28;20026;-67
2022/02/14 06:09:32;;;;;;;13.82;9.50;;;;;;;;;;2067704;28;20054;-67
2022/02/14 06:10:51;;;;;;;15.60;8.35;;;;;;;;;;2066784;28;20026;-67
2022/02/14 06:12:10;;;;;;;13.65;8.50;;;;;;;;;;2066916;28;20026;-67
2022/02/14 06:13:29;;;;;;;15.10;8.23;;;;;;;;;;2068055;28;20062;-67
2022/02/14 06:14:48;;;;;;;12.70;8.90;;;;;;;;;;2063698;28;20038;-67
2022/02/14 06:16:07;;;;;;;11.25;8.50;;;;;;;;;;2069604;28;20037;-67
2022/02/14 06:17:26;;;;;;;11.82;8.25;;;;;;;;;;2068318;28;20034;-67
2022/02/14 06:18:45;;;;;;;11.57;8.68;;;;;;;;;;2068127;28;20117;-67
2022/02/14 06:20:05;;;;;;;10.73;8.52;;;;;;;;;;2066364;28;20034;-67
2022/02/14 06:21:25;;;;;;;12.85;8.50;;;;;;;;;;2068434;28;20774;-67
2022/02/14 06:22:44;;;;;;;16.13;8.57;;;;;;;;;;2067149;28;20054;-67
2022/02/14 06:24:02;;;;;;;9.82;7.75;;;;;;;;;;2067149;28;20607;-67
2022/02/14 06:25:21;;;;;;;13.48;8.43;;;;;;;;;;2066028;28;20042;-65
2022/02/14 06:26:40;;;;;;;15.23;8.15;;;;;;;;;;2068545;28;20034;-65
2022/02/14 06:27:59;;;;;;;13.00;8.82;;;;;;;;;;2067914;28;20022;-66
2022/02/14 06:29:18;;;;;;;13.80;8.43;;;;;;;;;;2067876;28;20039;-66
2022/02/14 06:30:37;;;;;;;16.70;8.75;;;;;;;;;;2067668;28;20121;-66
2022/02/14 06:31:56;;;;;;;10.77;8.10;;;;;;;;;;2067948;28;20034;-66
2022/02/14 06:33:15;;;;;;;15.65;8.93;;;;;;;;;;2067475;28;20034;-66
2022/02/14 06:34:34;;;;;;;17.95;9.40;;;;;;;;;;2067857;28;20026;-67
2022/02/14 06:35:53;;;;;;;15.13;9.13;;;;;;;;;;2063521;28;20030;-66
2022/02/14 06:37:12;;;;;;;17.38;8.02;;;;;;;;;;2066999;28;20061;-66
2022/02/14 06:38:31;;;;;;;12.18;8.52;;;;;;;;;;2067313;28;20038;-66
2022/02/14 06:39:50;;;;;;;15.95;8.50;;;;;;;;;;2066965;28;20029;-66
2022/02/14 06:41:09;;;;;;;19.63;9.25;;;;;;;;;;2067799;28;20062;-66
2022/02/14 06:42:28;;;;;;;14.45;8.90;;;;;;;;;;2068107;28;20046;-66
2022/02/14 06:43:47;;;;;;;12.13;8.52;;;;;;;;;;2067459;28;20117;-66
2022/02/14 06:45:07;;;;;;;10.75;8.50;;;;;;;;;;2065963;28;20038;-66
2022/02/14 06:46:26;;;;;;;15.07;9.13;;;;;;;;;;2067377;28;20061;-67
2022/02/14 06:47:45;;;;;;;17.90;9.10;;;;;;;;;;2066983;28;20465;-67
2022/02/14 06:49:06;;;;;;;13.75;8.45;;;;;;;;;;2065459;28;20030;-66
2022/02/14 06:50:25;;;;;;;18.15;9.38;;;;;;;;;;2069166;28;20548;-68
2022/02/14 06:51:44;;;;;;;11.18;8.50;;;;;;;;;;2067204;28;20035;-66
2022/02/14 06:53:03;;;;;;;12.13;8.65;;;;;;;;;;2065135;28;20423;-66
2022/02/14 06:54:23;;;;;;;14.65;9.05;;;;;;;;;;2067634;28;20488;-66
2022/02/14 06:55:42;;;;;;;13.48;8.20;;;;;;;;;;2067013;28;20038;-66
2022/02/14 06:57:01;;;;;;;14.68;8.77;;;;;;;;;;2066578;28;20018;-66
2022/02/14 06:58:20;;;;;;;17.45;9.43;;;;;;;;;;2067505;28;20483;-66
2022/02/14 06:59:39;;;;;;;14.05;7.65;;;;;;;;;;2069451;28;20456;-66
2022/02/14 07:00:58;;;;;;;15.00;8.30;;;;;;;;;;2068366;28;20034;-66
2022/02/14 07:02:17;;;;;;;17.23;8.13;;;;;;;;;;2066387;28;20592;-66
2022/02/14 07:03:37;;;;;;;13.45;8.23;;;;;;;;;;2067048;28;20031;-66
2022/02/14 07:04:56;;;;;;;15.13;9.27;;;;;;;;;;2066025;28;20105;-66
2022/02/14 07:06:15;;;;;;;15.35;7.20;;;;;;;;;;2067176;28;20037;-66
2022/02/14 07:07:34;;;;;;;15.68;8.85;;;;;;;;;;2070121;28;20022;-65
2022/02/14 07:08:53;;;;;;;15.60;9.40;;;;;;;;;;2066853;28;20042;-65
2022/02/14 07:10:13;;;;;;;18.38;8.40;;;;;;;;;;2067941;28;20504;-65
2022/02/14 07:11:32;;;;;;;21.45;9.10;;;;;;;;;;2067043;28;20034;-65
2022/02/14 07:12:50;;;;;;;14.93;8.75;;;;;;;;;;2066252;28;20042;-67
2022/02/14 07:14:10;;;;;;;18.73;9.18;;;;;;;;;;2066612;28;20082;-65
2022/02/14 07:15:30;;;;;;;24.80;9.20;;;;;;;;;;2067339;28;20113;-66
2022/02/14 07:16:50;;;;;;;20.70;8.85;;;;;;;;;;2066145;28;20031;-65
2022/02/14 07:18:12;;;;;;;13.52;8.32;;;;;;;;;;2067327;28;20141;-65
2022/02/14 07:19:31;;;;;;;20.98;8.38;;;;;;;;;;2067468;28;20030;-64
2022/02/14 07:20:50;;;;;;;11.80;8.65;;;;;;;;;;2068184;28;20035;-67
2022/02/14 07:22:09;;;;;;;17.30;8.45;;;;;;;;;;2067281;28;20031;-64
2022/02/14 07:23:28;;;;;;;18.50;8.25;;;;;;;;;;2067337;28;20117;-67
2022/02/14 07:24:48;;;;;;;14.70;8.98;;;;;;;;;;2067618;28;20037;-65
2022/02/14 07:26:07;;;;;;;14.32;8.35;;;;;;;;;;2065776;28;20053;-67
2022/02/14 07:27:26;;;;;;;17.67;7.95;;;;;;;;;;2067570;28;20034;-64
2022/02/14 07:28:45;;;;;;;14.40;8.07;;;;;;;;;;2064627;28;20117;-65
2022/02/14 07:30:05;;;;;;;17.15;9.32;;;;;;;;;;2066673;28;20018;-65
2022/02/14 07:31:24;;;;;;;17.33;9.13;;;;;;;;;;2066515;28;20064;-66
2022/02/14 07:32:44;;;;;;;22.15;8.88;;;;;;;;;;2067818;28;20404;-67
2022/02/14 07:34:03;;;;;;;17.23;8.05;;;;;;;;;;2067164;28;20121;-65
2022/02/14 07:35:22;;;;;;;17.33;8.77;;;;;;;;;;2067231;28;20066;-66
2022/02/14 07:36:41;;;;;;;20.30;9.27;;;;;;;;;;2066924;28;20037;-66
2022/02/14 07:38:00;;;;;;;19.08;10.27;;;;;;;;;;2067699;28;20023;-65
2022/02/14 07:39:19;;;;;;;16.27;9.32;;;;;;;;;;2067218;28;20496;-65
2022/02/14 07:40:37;;;;;;;16.65;7.88;;;;;;;;;;2066231;28;20045;-66
2022/02/14 07:41:57;;;;;;;23.10;9.13;;;;;;;;;;2066598;28;20054;-66
2022/02/14 07:43:15;;;;;;;16.27;9.23;;;;;;;;;;2067600;28;20026;-66
2022/02/14 07:44:34;;;;;;;14.18;8.63;;;;;;;;;;2066931;28;20026;-66
2022/02/14 07:45:53;;;;;;;18.45;9.45;;;;;;;;;;2065864;28;20449;-65
2022/02/14 07:47:13;;;;;;;23.48;9.80;;;;;;;;;;2068398;28;20456;-66
2022/02/14 07:48:31;;;;;;;18.38;9.02;;;;;;;;;;2068018;28;20138;-66
2022/02/14 07:49:51;;;;;;;14.85;9.20;;;;;;;;;;2066308;28;20030;-66
2022/02/14 07:51:09;;;;;;;17.17;8.68;;;;;;;;;;2066360;28;20091;-66
2022/02/14 07:52:28;;;;;;;14.00;8.73;;;;;;;;;;2068179;28;20042;-68
2022/02/14 07:53:48;;;;;;;14.60;9.13;;;;;;;;;;2066735;28;20154;-66